Time;durP1;ratioP1;P1;durP2;ratioP2;P2;SDS_P1;SDS_P2;PMS_P1;PMS_P2;Temp;Humidity;BMP_temperature;BMP_pressure;BME280_temperature;BME280_humidity;BME280_pressure;Samples;Min_cycle;Max_cycle;Signal;HPM_P1;HPM_P2
2021/07/07 00:02:03;;;;;;;6.03;3.83;;;15.50;99.90;;;;;;5050632;28;20183;-73
2021/07/07 00:04:28;;;;;;;5.33;3.00;;;15.50;99.90;;;;;;5051511;28;20518;-73
2021/07/07 00:06:54;;;;;;;6.27;4.03;;;15.50;99.90;;;;;;5051600;28;20161;-73
2021/07/07 00:09:20;;;;;;;5.87;3.97;;;15.50;99.90;;;;;;5051641;28;20149;-73
2021/07/07 00:11:46;;;;;;;9.23;3.40;;;15.50;99.90;;;;;;5052910;28;20165;-73
2021/07/07 00:14:11;;;;;;;5.80;3.50;;;15.50;99.90;;;;;;5055487;28;20180;-73
2021/07/07 00:16:37;;;;;;;7.80;3.17;;;15.40;99.90;;;;;;5055559;28;20403;-73
2021/07/07 00:19:03;;;;;;;8.23;4.27;;;15.40;99.90;;;;;;5054374;28;20176;-73
2021/07/07 00:21:29;;;;;;;5.53;3.13;;;15.40;99.90;;;;;;5048802;28;20165;-73
2021/07/07 00:23:54;;;;;;;4.63;3.27;;;15.40;99.90;;;;;;5035029;28;20903;-73
2021/07/07 00:26:20;;;;;;;3.53;2.93;;;15.40;99.90;;;;;;5035169;28;20294;-73
2021/07/07 00:28:46;;;;;;;3.77;3.00;;;15.30;99.90;;;;;;5035095;28;20176;-73
2021/07/07 00:31:11;;;;;;;6.50;4.50;;;15.30;99.90;;;;;;5035177;28;20165;-73
2021/07/07 00:33:37;;;;;;;7.47;3.50;;;15.30;99.90;;;;;;5035060;28;20283;-73
2021/07/07 00:36:04;;;;;;;6.20;3.77;;;15.30;99.90;;;;;;5043226;28;20180;-73
2021/07/07 00:38:29;;;;;;;6.43;3.83;;;15.30;99.90;;;;;;5054974;28;20157;-73
2021/07/07 00:40:57;;;;;;;7.50;3.90;;;15.30;99.90;;;;;;5036527;28;20495;-73
2021/07/07 00:43:23;;;;;;;7.23;4.27;;;15.20;99.90;;;;;;5052017;28;20266;-73
2021/07/07 00:45:48;;;;;;;5.30;3.07;;;15.20;99.90;;;;;;5054635;28;20443;-73
2021/07/07 00:48:14;;;;;;;4.47;4.00;;;15.20;99.90;;;;;;5044437;28;20534;-73
2021/07/07 00:50:41;;;;;;;6.67;3.73;;;15.20;99.90;;;;;;5034634;28;20211;-73
2021/07/07 00:53:09;;;;;;;6.00;3.37;;;15.20;99.90;;;;;;5043962;28;20263;-73
2021/07/07 00:55:35;;;;;;;3.77;3.30;;;15.20;99.90;;;;;;5054897;28;20443;-73
2021/07/07 00:58:01;;;;;;;8.40;3.83;;;15.10;99.90;;;;;;5054461;28;20440;-73
2021/07/07 01:00:27;;;;;;;7.57;4.43;;;15.20;99.90;;;;;;5054425;28;20463;-73
2021/07/07 01:02:57;;;;;;;6.53;3.97;;;15.10;99.90;;;;;;5044831;28;20446;-73
2021/07/07 01:05:23;;;;;;;6.70;3.60;;;15.10;99.90;;;;;;5034459;28;20256;-73
2021/07/07 01:07:48;;;;;;;4.60;3.63;;;15.10;99.90;;;;;;5034525;28;20428;-73
2021/07/07 01:10:15;;;;;;;9.47;3.30;;;15.10;99.90;;;;;;5044745;28;20192;-73
2021/07/07 01:12:42;;;;;;;5.83;3.13;;;15.00;99.90;;;;;;5054277;28;20171;-73
2021/07/07 01:15:13;;;;;;;5.40;3.30;;;15.00;99.90;;;;;;5054472;28;20916;-73
2021/07/07 01:17:39;;;;;;;6.47;4.10;;;15.00;99.90;;;;;;5054203;28;20396;-73
2021/07/07 01:20:10;;;;;;;8.13;3.90;;;15.00;99.90;;;;;;5054088;28;20490;-73
2021/07/07 01:22:37;;;;;;;6.10;3.70;;;15.00;99.90;;;;;;5054126;28;20768;-73
2021/07/07 01:25:04;;;;;;;7.10;3.70;;;15.00;99.90;;;;;;5054028;28;20454;-73
2021/07/07 01:27:31;;;;;;;4.53;3.00;;;14.90;99.90;;;;;;5053318;28;20911;-73
2021/07/07 01:29:56;;;;;;;5.20;3.03;;;14.90;99.90;;;;;;5053875;28;20761;-73
2021/07/07 01:32:22;;;;;;;5.20;4.00;;;14.90;99.90;;;;;;5049143;28;20521;-73
2021/07/07 01:34:48;;;;;;;7.10;3.20;;;14.90;99.90;;;;;;5033848;28;20173;-73
2021/07/07 01:37:13;;;;;;;5.27;3.60;;;14.90;99.90;;;;;;5034001;28;20181;-73
2021/07/07 01:39:40;;;;;;;5.97;3.90;;;14.80;99.90;;;;;;5033755;28;20253;-73
2021/07/07 01:42:06;;;;;;;13.10;4.33;;;14.80;99.90;;;;;;5034329;28;20153;-73
2021/07/07 01:44:31;;;;;;;8.47;5.70;;;14.80;99.90;;;;;;5034146;28;20416;-73
2021/07/07 01:46:57;;;;;;;27.40;16.30;;;14.80;99.90;;;;;;5033598;28;20530;-73
2021/07/07 01:49:22;;;;;;;31.83;18.47;;;14.80;99.90;;;;;;5033790;28;20172;-73
2021/07/07 01:51:48;;;;;;;17.37;10.50;;;14.80;99.90;;;;;;5033690;28;20176;-73
2021/07/07 01:54:14;;;;;;;24.57;11.20;;;14.80;99.90;;;;;;5033567;28;20161;-73
2021/07/07 01:56:39;;;;;;;16.77;10.17;;;14.80;99.90;;;;;;5033657;28;20511;-73
2021/07/07 01:59:05;;;;;;;11.03;7.23;;;14.70;99.90;;;;;;5034540;28;20211;-73
2021/07/07 02:01:31;;;;;;;11.00;6.83;;;14.70;99.90;;;;;;5051778;28;20270;-73
2021/07/07 02:03:57;;;;;;;8.53;6.47;;;14.70;99.90;;;;;;5033407;28;20475;-73
2021/07/07 02:06:22;;;;;;;13.37;5.80;;;14.70;99.90;;;;;;5033634;28;20517;-73
2021/07/07 02:08:48;;;;;;;9.10;4.83;;;14.70;99.90;;;;;;5033251;28;20642;-73
2021/07/07 02:11:13;;;;;;;4.93;3.07;;;14.70;99.90;;;;;;5033174;28;20502;-73
2021/07/07 02:13:39;;;;;;;8.17;3.07;;;14.70;99.90;;;;;;5033504;28;20519;-73
2021/07/07 02:16:05;;;;;;;11.40;3.80;;;14.70;99.90;;;;;;5032996;28;20660;-73
2021/07/07 02:18:31;;;;;;;5.73;3.70;;;14.70;99.90;;;;;;5045290;28;20188;-73
2021/07/07 02:20:56;;;;;;;8.00;3.27;;;14.70;99.90;;;;;;5053239;28;20399;-73
2021/07/07 02:23:24;;;;;;;7.57;4.10;;;14.70;99.90;;;;;;5052900;28;20629;-73
2021/07/07 02:25:50;;;;;;;9.00;4.40;;;14.70;99.90;;;;;;5052721;28;20212;-73
2021/07/07 02:28:18;;;;;;;4.70;3.37;;;14.80;99.90;;;;;;5053273;28;20402;-73
2021/07/07 02:30:45;;;;;;;7.40;3.63;;;14.80;99.90;;;;;;5052921;28;20188;-73
2021/07/07 02:33:11;;;;;;;6.23;3.40;;;14.80;99.90;;;;;;5039035;28;20455;-73
2021/07/07 02:35:40;;;;;;;5.20;3.03;;;14.80;99.90;;;;;;5045752;28;20411;-73
2021/07/07 02:38:07;;;;;;;6.40;3.00;;;14.80;99.90;;;;;;5052695;28;20157;-73
2021/07/07 02:40:35;;;;;;;6.17;3.70;;;14.80;99.90;;;;;;5052590;28;20434;-73
2021/07/07 02:43:01;;;;;;;7.10;3.27;;;14.80;99.90;;;;;;5052516;28;20540;-73
2021/07/07 02:45:29;;;;;;;4.97;3.50;;;14.80;99.90;;;;;;5052496;28;20537;-73
2021/07/07 02:47:54;;;;;;;4.60;2.97;;;14.80;99.90;;;;;;5053317;28;20488;-73
2021/07/07 02:50:20;;;;;;;5.83;3.17;;;14.80;99.90;;;;;;5052658;28;20688;-73
2021/07/07 02:52:48;;;;;;;7.57;3.80;;;14.80;99.90;;;;;;5051672;28;20180;-73
2021/07/07 02:55:16;;;;;;;4.83;2.97;;;14.70;99.90;;;;;;5052379;28;20160;-73
2021/07/07 02:57:57;;;;;;;4.73;3.30;;;14.70;99.90;;;;;;5052241;28;20407;-73
2021/07/07 03:00:34;;;;;;;8.23;4.03;;;14.70;99.90;;;;;;5052343;28;20410;-73
2021/07/07 03:03:05;;;;;;;9.13;3.93;;;14.70;99.90;;;;;;5050817;28;20923;-73
2021/07/07 03:05:33;;;;;;;5.17;3.80;;;14.70;99.90;;;;;;5052349;28;20469;-73
2021/07/07 03:07:59;;;;;;;10.00;3.23;;;14.70;99.90;;;;;;5051794;28;20388;-73
2021/07/07 03:10:25;;;;;;;9.50;3.13;;;14.70;99.90;;;;;;5032201;28;20408;-73
2021/07/07 03:12:50;;;;;;;6.77;3.67;;;14.70;99.90;;;;;;5032349;28;20207;-73
2021/07/07 03:15:16;;;;;;;4.83;3.37;;;14.70;99.90;;;;;;5032228;28;20161;-73
2021/07/07 03:17:42;;;;;;;5.00;3.30;;;14.70;99.90;;;;;;5032470;28;20165;-73
2021/07/07 03:20:08;;;;;;;6.43;3.17;;;14.70;99.90;;;;;;5032161;28;20240;-73
2021/07/07 03:22:34;;;;;;;7.77;4.17;;;14.60;99.90;;;;;;5032109;28;20162;-73
2021/07/07 03:25:00;;;;;;;13.43;3.37;;;14.70;99.90;;;;;;5032062;28;20471;-73
2021/07/07 03:27:25;;;;;;;5.30;2.57;;;14.70;99.90;;;;;;5032386;28;20439;-73
2021/07/07 03:29:51;;;;;;;5.57;2.80;;;14.70;99.90;;;;;;5031967;28;20606;-73
2021/07/07 03:32:16;;;;;;;4.90;2.37;;;14.70;99.90;;;;;;5040036;28;20692;-73
2021/07/07 03:34:42;;;;;;;6.20;3.43;;;14.70;99.90;;;;;;5039106;28;20652;-73
2021/07/07 03:37:07;;;;;;;6.17;3.07;;;14.70;99.90;;;;;;5032213;28;20169;-73
2021/07/07 03:39:33;;;;;;;5.00;3.10;;;14.80;99.90;;;;;;5031830;28;20696;-73
2021/07/07 03:41:59;;;;;;;4.33;2.90;;;14.80;99.90;;;;;;5032306;28;20173;-73
2021/07/07 03:44:24;;;;;;;5.57;2.93;;;14.80;99.90;;;;;;5051465;28;20259;-73
2021/07/07 03:46:50;;;;;;;7.53;3.30;;;14.80;99.90;;;;;;5053539;28;20248;-73
2021/07/07 03:49:15;;;;;;;5.07;3.03;;;14.80;99.90;;;;;;5055992;28;20654;-73
2021/07/07 03:51:41;;;;;;;4.03;2.80;;;14.80;99.90;;;;;;5055776;28;20165;-73
2021/07/07 03:54:06;;;;;;;8.10;3.40;;;14.80;99.90;;;;;;5055515;28;20295;-73
2021/07/07 03:56:32;;;;;;;6.23;3.10;;;14.80;99.90;;;;;;5055896;28;20195;-73
2021/07/07 03:58:57;;;;;;;6.53;2.97;;;14.80;99.90;;;;;;5055434;28;20184;-73
2021/07/07 04:01:23;;;;;;;9.23;3.10;;;14.80;99.90;;;;;;5036069;28;20173;-73
2021/07/07 04:03:48;;;;;;;6.60;2.77;;;14.90;99.90;;;;;;5035880;28;20165;-73
2021/07/07 04:06:14;;;;;;;5.63;3.00;;;14.90;99.90;;;;;;5035602;28;20186;-73
2021/07/07 04:08:39;;;;;;;5.23;3.00;;;14.90;99.90;;;;;;5035602;28;20161;-73
2021/07/07 04:11:08;;;;;;;4.57;2.93;;;15.00;99.90;;;;;;5035474;28;20154;-73
2021/07/07 04:13:33;;;;;;;5.37;2.80;;;15.00;99.90;;;;;;5035628;28;20165;-73
2021/07/07 04:15:59;;;;;;;11.30;3.00;;;15.00;99.90;;;;;;5035723;28;20400;-73
2021/07/07 04:18:25;;;;;;;5.40;2.80;;;15.00;99.90;;;;;;5035746;28;20173;-73
2021/07/07 04:20:50;;;;;;;6.27;4.40;;;15.00;99.90;;;;;;5035314;28;20177;-73
2021/07/07 04:23:17;;;;;;;5.20;2.33;;;15.00;99.90;;;;;;5035503;28;20189;-73
2021/07/07 04:25:42;;;;;;;7.43;3.30;;;15.00;99.90;;;;;;5035114;28;20509;-73
2021/07/07 04:28:08;;;;;;;5.37;3.33;;;15.00;99.90;;;;;;5036040;28;20431;-73
2021/07/07 04:30:35;;;;;;;4.40;2.67;;;15.10;99.90;;;;;;5035187;28;20162;-73
2021/07/07 04:33:01;;;;;;;7.43;2.90;;;15.10;99.90;;;;;;5050500;28;20200;-73
2021/07/07 04:35:27;;;;;;;6.13;2.77;;;15.20;99.90;;;;;;5035177;28;20390;-73
2021/07/07 04:37:52;;;;;;;5.23;3.00;;;15.20;99.90;;;;;;5034973;28;20905;-73
2021/07/07 04:40:20;;;;;;;5.40;2.20;;;15.30;99.90;;;;;;5034901;28;20169;-73
2021/07/07 04:42:46;;;;;;;4.33;2.90;;;15.30;99.90;;;;;;5035222;28;20585;-73
2021/07/07 04:45:13;;;;;;;3.40;2.10;;;15.30;99.90;;;;;;5034780;28;20531;-73
2021/07/07 04:47:39;;;;;;;7.33;2.53;;;15.30;99.90;;;;;;5034835;28;20818;-73
2021/07/07 04:50:07;;;;;;;3.67;2.60;;;15.30;99.90;;;;;;5035313;28;20392;-73
2021/07/07 04:52:33;;;;;;;6.00;2.57;;;15.40;99.90;;;;;;5048787;28;20411;-73
2021/07/07 04:54:58;;;;;;;6.30;2.80;;;15.40;99.90;;;;;;5074654;28;20857;-72
2021/07/07 04:57:24;;;;;;;4.97;3.27;;;15.50;99.90;;;;;;5072347;28;20632;-72
2021/07/07 04:59:49;;;;;;;3.73;2.50;;;15.60;99.90;;;;;;5051163;28;20177;-72
2021/07/07 05:02:15;;;;;;;6.40;2.90;;;15.70;99.90;;;;;;5047830;28;20176;-71
2021/07/07 05:04:40;;;;;;;7.50;3.03;;;15.80;99.90;;;;;;5046638;28;20742;-71
2021/07/07 05:07:06;;;;;;;6.40;3.13;;;16.00;99.90;;;;;;5036730;28;20187;-71
2021/07/07 05:09:31;;;;;;;3.13;2.10;;;16.10;99.90;;;;;;5053108;28;20167;-71
2021/07/07 05:11:57;;;;;;;4.50;2.40;;;16.30;99.90;;;;;;5052728;28;20176;-71
2021/07/07 05:14:23;;;;;;;4.23;2.50;;;16.40;99.90;;;;;;5052424;28;20149;-72
2021/07/07 05:16:48;;;;;;;6.70;2.53;;;16.50;99.90;;;;;;5050440;28;20384;-72
2021/07/07 05:19:14;;;;;;;5.80;2.43;;;16.60;99.90;;;;;;5051849;28;20168;-71
2021/07/07 05:21:40;;;;;;;4.97;2.20;;;16.60;99.90;;;;;;5054074;28;20149;-72
2021/07/07 05:24:06;;;;;;;4.30;2.43;;;16.60;99.90;;;;;;5053505;28;20635;-72
2021/07/07 05:26:32;;;;;;;4.67;3.30;;;16.60;99.90;;;;;;5034214;28;20267;-72
2021/07/07 05:28:57;;;;;;;4.27;2.10;;;16.60;99.90;;;;;;5033949;28;20479;-71
2021/07/07 05:31:23;;;;;;;4.60;2.60;;;16.60;99.90;;;;;;5037218;28;20328;-71
2021/07/07 05:33:52;;;;;;;5.47;2.67;;;16.60;99.90;;;;;;5037572;28;20197;-73
2021/07/07 05:36:17;;;;;;;5.13;2.53;;;16.70;99.90;;;;;;5033769;28;20645;-73
2021/07/07 05:38:43;;;;;;;8.50;2.70;;;16.70;99.90;;;;;;5041912;28;20420;-73
2021/07/07 05:41:08;;;;;;;5.77;2.50;;;16.70;99.90;;;;;;5052106;28;20248;-73
2021/07/07 05:43:34;;;;;;;7.83;2.70;;;16.70;99.90;;;;;;5034062;28;20177;-73
2021/07/07 05:45:59;;;;;;;9.17;2.80;;;16.70;99.90;;;;;;5041789;28;20242;-73
2021/07/07 05:48:26;;;;;;;4.67;2.50;;;16.70;99.90;;;;;;5053811;28;20634;-73
2021/07/07 05:50:53;;;;;;;3.83;1.73;;;16.80;99.90;;;;;;5053209;28;20165;-73
2021/07/07 05:53:19;;;;;;;4.40;3.00;;;16.90;99.90;;;;;;5051312;28;20911;-73
2021/07/07 05:55:45;;;;;;;4.30;2.10;;;17.00;99.90;;;;;;5052653;28;20483;-73
2021/07/07 05:58:10;;;;;;;6.17;2.90;;;17.00;99.90;;;;;;5039406;28;20510;-73
2021/07/07 06:00:36;;;;;;;6.50;2.30;;;17.10;99.90;;;;;;5044034;28;20185;-73
2021/07/07 06:03:01;;;;;;;8.57;3.07;;;17.20;99.90;;;;;;5041993;28;20512;-72
2021/07/07 06:05:27;;;;;;;3.80;2.40;;;17.30;99.90;;;;;;5048715;28;20188;-73
2021/07/07 06:07:55;;;;;;;6.03;3.30;;;17.40;99.90;;;;;;5041710;28;20203;-73
2021/07/07 06:10:23;;;;;;;4.37;2.27;;;17.60;99.90;;;;;;5042332;28;20186;-74
2021/07/07 06:12:49;;;;;;;5.03;2.37;;;17.80;99.90;;;;;;5047077;28;20422;-74
2021/07/07 06:15:15;;;;;;;8.43;2.43;;;18.00;99.90;;;;;;5049015;28;21184;-74
2021/07/07 06:17:42;;;;;;;5.23;2.37;;;18.30;99.90;;;;;;5043853;28;20575;-74
2021/07/07 06:20:10;;;;;;;5.13;2.43;;;18.50;99.90;;;;;;5044949;28;20434;-74
2021/07/07 06:22:37;;;;;;;6.50;2.17;;;18.60;99.90;;;;;;5036404;28;20914;-74
2021/07/07 06:25:04;;;;;;;6.63;2.70;;;18.70;99.90;;;;;;5033917;28;20463;-73
2021/07/07 06:27:30;;;;;;;21.37;2.73;;;18.80;99.90;;;;;;5039121;28;20438;-74
2021/07/07 06:29:55;;;;;;;4.17;2.10;;;18.80;99.90;;;;;;5034748;28;20432;-74
2021/07/07 06:32:21;;;;;;;7.43;2.40;;;18.80;99.90;;;;;;5034099;28;20239;-74
2021/07/07 06:34:48;;;;;;;11.30;3.67;;;18.80;99.90;;;;;;5032523;28;20269;-75
2021/07/07 06:37:13;;;;;;;5.27;1.97;;;18.90;99.90;;;;;;5035545;28;20587;-74
2021/07/07 06:39:39;;;;;;;2.63;1.80;;;19.00;99.90;;;;;;5043571;28;20401;-74
2021/07/07 06:42:05;;;;;;;3.53;1.90;;;19.00;99.90;;;;;;5051773;28;20168;-74
2021/07/07 06:44:31;;;;;;;4.10;2.30;;;19.10;99.90;;;;;;5038483;28;20264;-74
2021/07/07 06:46:57;;;;;;;3.47;2.07;;;19.10;99.90;;;;;;5036354;28;20515;-74
2021/07/07 06:49:22;;;;;;;2.23;2.00;;;19.10;99.90;;;;;;5038480;28;20435;-74
2021/07/07 06:51:49;;;;;;;4.63;1.90;;;19.20;99.90;;;;;;5042266;28;20197;-75
2021/07/07 06:54:15;;;;;;;5.33;2.30;;;19.30;99.90;;;;;;5037449;28;20173;-75
2021/07/07 06:56:41;;;;;;;4.27;1.93;;;19.30;99.90;;;;;;5047734;28;20832;-75
2021/07/07 06:59:06;;;;;;;5.70;2.10;;;19.50;99.90;;;;;;5037482;28;20435;-75
2021/07/07 07:01:32;;;;;;;7.53;3.63;;;19.60;99.90;;;;;;5038103;28;20634;-75
2021/07/07 07:03:58;;;;;;;4.90;2.00;;;19.70;99.90;;;;;;5033826;28;20244;-75
2021/07/07 07:06:24;;;;;;;4.63;1.73;;;19.80;99.90;;;;;;5038975;28;20455;-74
2021/07/07 07:08:49;;;;;;;3.30;1.70;;;19.90;99.90;;;;;;5040162;28;20206;-75
2021/07/07 07:11:17;;;;;;;6.10;2.20;;;19.90;99.90;;;;;;5031454;28;20170;-75
2021/07/07 07:13:45;;;;;;;6.80;2.03;;;19.90;99.90;;;;;;5040928;28;20181;-75
2021/07/07 07:16:10;;;;;;;5.43;2.50;;;19.90;99.90;;;;;;5041265;28;20446;-75
2021/07/07 07:18:36;;;;;;;3.00;2.00;;;20.00;99.90;;;;;;5043113;28;20428;-75
2021/07/07 07:21:02;;;;;;;10.30;1.73;;;20.00;99.90;;;;;;5035134;28;20268;-74
2021/07/07 07:23:28;;;;;;;7.80;2.23;;;20.20;99.90;;;;;;5041055;28;20181;-75
2021/07/07 07:25:53;;;;;;;3.93;2.73;;;20.30;99.90;;;;;;5033561;28;20220;-75
2021/07/07 07:28:19;;;;;;;3.03;1.83;;;20.50;99.90;;;;;;5044253;28;20192;-75
2021/07/07 07:30:45;;;;;;;1.97;1.63;;;20.60;99.90;;;;;;5032008;28;20161;-74
2021/07/07 07:33:11;;;;;;;6.43;1.53;;;20.70;99.90;;;;;;5044770;28;20203;-75
2021/07/07 07:35:37;;;;;;;4.77;1.80;;;20.80;99.90;;;;;;5036205;28;20781;-75
2021/07/07 07:38:15;;;;;;;12.10;2.57;;;21.00;99.90;;;;;;5045367;28;20176;-75
2021/07/07 07:40:42;;;;;;;2.80;2.20;;;21.20;99.90;;;;;;5036601;28;20185;-75
2021/07/07 07:43:10;;;;;;;6.67;2.57;;;21.40;99.90;;;;;;5031702;28;20462;-74
2021/07/07 07:45:37;;;;;;;5.43;2.17;;;22.20;99.90;;;;;;5037383;28;20454;-74
2021/07/07 07:48:03;;;;;;;4.70;2.40;;;22.90;99.90;;;;;;5037349;28;20430;-74
2021/07/07 07:50:29;;;;;;;2.70;1.37;;;23.80;99.90;;;;;;5037112;28;20433;-75
2021/07/07 07:52:55;;;;;;;5.37;2.40;;;25.00;99.90;;;;;;5059570;28;20775;-75
2021/07/07 07:55:21;;;;;;;3.00;1.23;;;26.20;98.80;;;;;;5036481;28;20185;-74
2021/07/07 07:57:48;;;;;;;5.30;1.50;;;27.50;94.50;;;;;;5035274;28;20186;-75
2021/07/07 08:00:17;;;;;;;4.00;1.87;;;28.10;91.50;;;;;;5049151;28;20464;-75
2021/07/07 08:02:43;;;;;;;3.90;1.80;;;28.60;90.20;;;;;;5041162;28;20430;-75
2021/07/07 08:05:09;;;;;;;5.80;1.47;;;29.30;88.10;;;;;;5033857;28;20780;-76
2021/07/07 08:07:37;;;;;;;2.60;1.60;;;30.40;81.90;;;;;;5037525;28;20423;-76
2021/07/07 08:10:08;;;;;;;4.47;1.53;;;31.30;73.80;;;;;;5035476;28;20423;-76
2021/07/07 08:12:33;;;;;;;2.23;1.40;;;32.00;67.30;;;;;;5043367;28;21245;-76
2021/07/07 08:14:59;;;;;;;4.30;1.70;;;32.60;66.20;;;;;;5034906;28;20434;-76
2021/07/07 08:17:25;;;;;;;4.70;2.30;;;33.30;59.50;;;;;;5035064;28;20162;-77
2021/07/07 08:19:50;;;;;;;3.97;1.53;;;33.50;55.90;;;;;;5034258;28;20227;-77
2021/07/07 08:22:17;;;;;;;2.20;1.30;;;33.80;54.50;;;;;;5040660;28;20662;-77
2021/07/07 08:24:45;;;;;;;2.20;1.50;;;34.50;51.70;;;;;;5031911;28;20189;-76
2021/07/07 08:27:11;;;;;;;2.70;1.53;;;35.20;49.60;;;;;;5041140;28;20845;-77
2021/07/07 08:29:38;;;;;;;2.83;1.40;;;36.30;48.40;;;;;;5041801;28;20446;-77
2021/07/07 08:32:05;;;;;;;3.97;2.47;;;37.10;44.40;;;;;;5041101;28;21122;-74
2021/07/07 08:34:31;;;;;;;3.33;1.33;;;37.90;41.70;;;;;;5056926;28;20556;-77
2021/07/07 08:36:57;;;;;;;2.70;1.70;;;38.40;40.90;;;;;;5037919;28;20482;-77
2021/07/07 08:39:23;;;;;;;4.80;1.70;;;39.30;40.90;;;;;;5036285;28;20423;-77
2021/07/07 08:41:50;;;;;;;4.97;1.67;;;39.60;36.70;;;;;;5039693;28;20192;-74
2021/07/07 08:44:16;;;;;;;4.90;2.63;;;40.20;36.40;;;;;;5038189;28;20230;-76
2021/07/07 08:46:41;;;;;;;4.03;1.80;;;40.90;34.50;;;;;;5038962;28;20610;-75
2021/07/07 08:49:07;;;;;;;3.90;1.83;;;41.50;33.80;;;;;;5035451;28;20176;-75
2021/07/07 08:51:33;;;;;;;3.33;1.33;;;41.90;35.20;;;;;;5040864;28;20175;-77
2021/07/07 08:54:00;;;;;;;3.03;1.30;;;41.90;30.60;;;;;;5042515;28;20249;-77
2021/07/07 08:56:25;;;;;;;4.53;2.42;;;42.30;32.20;;;;;;5039933;28;20172;-75
2021/07/07 08:58:51;;;;;;;5.40;2.67;;;42.80;30.50;;;;;;5041257;28;20521;-75
2021/07/07 09:01:17;;;;;;;4.28;1.45;;;43.10;30.90;;;;;;5047048;28;20188;-76
2021/07/07 09:03:43;;;;;;;3.15;1.35;;;42.80;30.20;;;;;;5038846;28;20179;-77
2021/07/07 09:06:11;;;;;;;2.83;1.40;;;42.90;29.70;;;;;;5049004;28;20192;-77
2021/07/07 09:08:38;;;;;;;3.92;1.55;;;42.80;30.00;;;;;;5052285;28;20181;-77
2021/07/07 09:11:16;;;;;;;4.90;1.42;;;42.30;29.70;;;;;;5046757;28;20164;-77
2021/07/07 09:13:42;;;;;;;3.40;1.63;;;42.70;30.00;;;;;;5054483;28;20175;-77
2021/07/07 09:16:10;;;;;;;4.50;1.90;;;42.70;28.30;;;;;;5048070;28;20263;-77
2021/07/07 09:18:36;;;;;;;2.22;1.58;;;42.30;29.30;;;;;;5044736;28;20172;-77
2021/07/07 09:21:03;;;;;;;3.65;1.65;;;42.50;29.70;;;;;;5044316;28;20322;-77
2021/07/07 09:23:30;;;;;;;3.80;1.50;;;42.50;28.80;;;;;;5044647;28;20208;-77
2021/07/07 09:25:59;;;;;;;3.72;1.80;;;41.80;28.30;;;;;;5035865;28;20208;-77
2021/07/07 09:28:29;;;;;;;2.13;1.10;;;41.80;30.50;;;;;;5051885;28;20183;-77
2021/07/07 09:31:01;;;;;;;2.88;1.30;;;41.70;29.40;;;;;;5050679;28;20542;-77
2021/07/07 09:33:34;;;;;;;2.95;1.30;;;41.40;29.70;;;;;;5038405;28;20208;-77
2021/07/07 09:36:21;;;;;;;2.30;1.17;;;41.00;31.50;;;;;;5039071;28;20172;-77
2021/07/07 09:38:48;;;;;;;4.63;1.65;;;40.80;32.00;;;;;;5042297;28;20172;-77
2021/07/07 09:41:14;;;;;;;3.90;2.50;;;39.90;30.60;;;;;;5044523;28;20176;-77
2021/07/07 09:43:49;;;;;;;2.67;1.73;;;38.10;32.30;;;;;;5036409;28;20964;-77
2021/07/07 09:46:17;;;;;;;2.93;1.70;;;36.80;34.50;;;;;;5049171;28;20483;-77
2021/07/07 09:48:42;;;;;;;3.70;1.80;;;35.40;36.10;;;;;;5045884;28;20431;-77
2021/07/07 09:51:08;;;;;;;4.23;1.53;;;34.20;38.30;;;;;;5034502;28;20423;-77
2021/07/07 09:53:34;;;;;;;4.10;2.00;;;33.10;40.70;;;;;;5039534;28;20311;-77
2021/07/07 09:56:02;;;;;;;2.20;1.20;;;32.50;42.90;;;;;;5047006;28;20172;-77
2021/07/07 09:58:28;;;;;;;2.53;1.33;;;32.00;43.60;;;;;;5035196;28;20564;-76
2021/07/07 10:00:54;;;;;;;3.87;1.47;;;31.70;43.70;;;;;;5051354;28;20499;-76
2021/07/07 10:03:19;;;;;;;6.13;1.97;;;31.20;43.40;;;;;;5038298;28;20534;-76
2021/07/07 10:05:47;;;;;;;2.10;1.40;;;31.00;45.90;;;;;;5041500;28;20716;-76
2021/07/07 10:08:13;;;;;;;1.80;1.53;;;30.50;45.70;;;;;;5039495;28;20177;-76
2021/07/07 10:10:42;;;;;;;8.67;1.90;;;30.10;46.70;;;;;;5034788;28;20513;-76
2021/07/07 10:13:10;;;;;;;2.83;1.57;;;30.00;49.10;;;;;;5039204;28;20432;-76
2021/07/07 10:15:36;;;;;;;1.77;1.23;;;30.10;48.50;;;;;;5033814;28;20444;-76
2021/07/07 10:18:04;;;;;;;2.83;1.80;;;29.90;47.90;;;;;;5038573;28;20477;-76
2021/07/07 10:20:30;;;;;;;3.30;1.70;;;29.30;48.00;;;;;;5033056;28;20432;-76
2021/07/07 10:22:57;;;;;;;3.47;1.37;;;28.90;48.90;;;;;;5033706;28;20968;-76
2021/07/07 10:25:26;;;;;;;9.07;2.17;;;28.70;48.90;;;;;;5039157;28;20968;-76
2021/07/07 10:27:55;;;;;;;4.00;1.50;;;28.20;49.40;;;;;;5043857;28;20431;-76
2021/07/07 10:30:21;;;;;;;3.23;1.60;;;27.90;50.50;;;;;;5032853;28;20439;-76
2021/07/07 10:33:06;;;;;;;2.87;2.13;;;27.90;52.00;;;;;;5035115;28;20455;-76
2021/07/07 10:35:32;;;;;;;3.53;2.40;;;28.00;52.30;;;;;;5042505;28;20432;-76
2021/07/07 10:37:57;;;;;;;2.03;1.80;;;28.10;51.90;;;;;;5044148;28;20476;-75
2021/07/07 10:40:29;;;;;;;4.17;2.50;;;28.10;52.00;;;;;;5036882;28;20179;-76
2021/07/07 10:42:55;;;;;;;4.93;2.23;;;27.70;52.00;;;;;;5038018;28;20178;-76
2021/07/07 10:45:41;;;;;;;9.00;3.30;;;27.40;52.30;;;;;;5035306;28;20502;-76
2021/07/07 10:48:24;;;;;;;5.53;2.20;;;27.20;52.80;;;;;;5039439;28;20782;-75
2021/07/07 10:50:52;;;;;;;3.10;1.60;;;27.10;53.90;;;;;;5038914;28;20423;-76
2021/07/07 10:56:06;;;;;;;5.97;2.23;;;26.90;53.50;;;;;;5049812;28;20563;-71
2021/07/07 10:58:36;;;;;;;4.90;2.20;;;26.70;53.80;;;;;;5041082;28;20441;-71
2021/07/07 11:01:03;;;;;;;4.00;2.33;;;26.60;53.30;;;;;;5040126;28;20438;-71
2021/07/07 11:03:32;;;;;;;7.60;2.33;;;26.50;53.40;;;;;;5029523;28;20431;-71
2021/07/07 11:06:02;;;;;;;2.23;1.80;;;26.50;54.30;;;;;;5031477;28;20441;-71
2021/07/07 11:08:29;;;;;;;4.70;2.27;;;26.50;54.80;;;;;;5031201;28;20473;-71
2021/07/07 11:10:57;;;;;;;6.00;2.70;;;26.50;54.80;;;;;;5040130;28;20503;-71
2021/07/07 11:13:23;;;;;;;3.97;2.60;;;26.50;55.70;;;;;;5044834;28;20441;-72
2021/07/07 11:15:50;;;;;;;2.47;2.17;;;26.40;54.60;;;;;;5043184;28;20461;-71
2021/07/07 11:18:18;;;;;;;4.50;2.20;;;26.20;53.20;;;;;;5037770;28;20184;-71
2021/07/07 11:20:48;;;;;;;5.47;2.50;;;26.00;53.50;;;;;;5030767;28;20441;-72
2021/07/07 11:23:13;;;;;;;4.00;2.00;;;26.00;54.90;;;;;;5042625;28;20430;-71
2021/07/07 11:25:40;;;;;;;7.20;1.97;;;25.90;54.30;;;;;;5047383;28;20468;-71
2021/07/07 11:28:08;;;;;;;3.37;1.90;;;25.90;54.50;;;;;;5041632;28;20195;-71
2021/07/07 11:30:34;;;;;;;3.53;2.00;;;25.70;53.40;;;;;;5036261;28;20923;-71
2021/07/07 11:33:03;;;;;;;3.83;1.80;;;25.70;54.30;;;;;;5032417;28;20522;-71
2021/07/07 11:35:32;;;;;;;3.37;1.73;;;25.70;54.80;;;;;;5034316;28;20469;-71
2021/07/07 11:38:02;;;;;;;2.40;1.63;;;25.80;55.80;;;;;;5038563;28;20467;-71
2021/07/07 11:40:30;;;;;;;6.83;2.60;;;25.60;54.50;;;;;;5034746;28;20422;-71
2021/07/07 11:43:14;;;;;;;11.67;4.80;;;25.60;58.40;;;;;;5033841;28;20469;-71
2021/07/07 11:45:42;;;;;;;3.50;2.63;;;25.70;57.50;;;;;;5030833;28;20947;-71
2021/07/07 11:50:54;;;;;;;2.97;1.63;;;25.90;56.40;;;;;;5040317;28;20549;-72
2021/07/07 11:53:21;;;;;;;3.50;1.37;;;26.00;53.70;;;;;;5025946;28;20434;-71
2021/07/07 11:58:27;;;;;;;2.00;1.30;;;26.20;53.70;;;;;;5062577;28;20535;-71
2021/07/07 12:00:55;;;;;;;2.27;1.63;;;26.30;51.40;;;;;;5057089;28;20508;-71
2021/07/07 12:03:23;;;;;;;6.43;1.60;;;26.30;50.40;;;;;;5046357;28;20437;-71
2021/07/07 12:05:50;;;;;;;2.43;1.20;;;26.20;52.30;;;;;;5044746;28;20759;-71
2021/07/07 12:08:20;;;;;;;3.40;1.50;;;25.80;51.50;;;;;;5048004;28;20442;-71
2021/07/07 12:10:47;;;;;;;1.13;1.07;;;25.70;53.10;;;;;;5044664;28;20934;-71
2021/07/07 12:18:55;;;;;;;2.50;1.40;;;25.80;52.20;;;;;;5106899;27;20533;-71
2021/07/07 12:24:03;;;;;;;2.27;1.17;;;25.70;52.40;;;;;;5050262;28;20536;-71
2021/07/07 12:26:32;;;;;;;3.40;1.73;;;25.80;53.80;;;;;;5043747;28;20814;-71
2021/07/07 12:29:00;;;;;;;2.00;1.33;;;25.70;54.90;;;;;;5047855;28;20946;-71
2021/07/07 12:31:27;;;;;;;4.17;1.70;;;25.70;53.00;;;;;;5035686;28;20915;-71
2021/07/07 12:33:54;;;;;;;4.60;1.80;;;25.80;54.90;;;;;;5041533;28;20450;-71
2021/07/07 12:36:29;;;;;;;2.23;1.33;;;25.70;53.50;;;;;;5041437;28;20449;-71
2021/07/07 12:38:58;;;;;;;2.90;1.47;;;25.70;54.50;;;;;;5036745;28;20522;-71
2021/07/07 12:44:14;;;;;;;2.63;1.60;;;25.30;52.80;;;;;;5060860;28;20697;-71
2021/07/07 12:52:41;;;;;;;2.77;1.30;;;25.20;57.00;;;;;;5039301;28;20718;-72
2021/07/07 13:08:29;;;;;;;2.17;1.53;;;25.20;54.50;;;;;;5042150;28;20565;-71
2021/07/07 13:10:55;;;;;;;4.37;1.63;;;25.30;53.90;;;;;;5036404;28;20472;-71
2021/07/07 13:16:21;;;;;;;2.97;1.60;;;25.20;53.80;;;;;;5086222;28;20535;-71
2021/07/07 13:19:07;;;;;;;2.40;1.70;;;25.40;54.80;;;;;;5076315;28;20447;-71
2021/07/07 13:21:37;;;;;;;2.50;1.47;;;25.40;57.60;;;;;;5073763;28;20789;-71
2021/07/07 13:24:05;;;;;;;2.33;1.40;;;25.40;57.00;;;;;;5081305;28;20441;-71
2021/07/07 13:26:53;;;;;;;3.60;1.63;;;25.50;61.20;;;;;;5078349;28;20433;-71